Yreka, California
Current Conditions -  °F | °C
As of 12:53 AM on Thursday 23 Oct 2014 (Local Time) from KSIY Reporting Station
Light Rain Light Rain  
Wind Chill: 52°   Ceiling: 6500
Heat Index: 52°   Visibility: 10mi
Dew Point: 47°   Wind: 8mph
Humidity: 83%   Direction: 170°S
Pressure: 29.98"   Gusts: NA
Location:  41.73°N, 122.63°W
Report Text: KSIY 230753Z AUTO 17007KT 10SM -RA BKN065 OVC085 11/08 A2998 RMK AO2 SLP153 P0002 T01110083 401830072
Loading
Personal Weather Stations






























Interactive Weather Map
Tropical Storm Tracking
New forecast layout! Learn more

10-Day Weather Forecast

Advertisements
Track Severe Weather on mobile